sensor_id;sensor_type;location;lat;lon;timestamp;temperature;humidity
37052;DHT22;22964;52.272;13.356;2024-03-23T13:39:10;7.30;95.40
37052;DHT22;22964;52.272;13.356;2024-03-23T13:41:45;7.40;95.70
37052;DHT22;22964;52.272;13.356;2024-03-23T13:44:12;7.90;95.10
37052;DHT22;22964;52.272;13.356;2024-03-23T13:46:40;8.40;94.20
37052;DHT22;22964;52.272;13.356;2024-03-23T13:49:28;9.00;93.40
37052;DHT22;22964;52.272;13.356;2024-03-23T13:51:56;9.60;92.40
37052;DHT22;22964;52.272;13.356;2024-03-23T13:54:23;10.10;91.30
37052;DHT22;22964;52.272;13.356;2024-03-23T13:56:53;10.50;90.90
37052;DHT22;22964;52.272;13.356;2024-03-23T13:59:20;10.90;90.00
37052;DHT22;22964;52.272;13.356;2024-03-23T14:01:46;11.20;88.90
37052;DHT22;22964;52.272;13.356;2024-03-23T14:04:13;11.50;88.10
37052;DHT22;22964;52.272;13.356;2024-03-23T14:06:39;11.70;87.20
37052;DHT22;22964;52.272;13.356;2024-03-23T14:09:05;12.00;86.10
37052;DHT22;22964;52.272;13.356;2024-03-23T14:11:35;12.30;85.30
37052;DHT22;22964;52.272;13.356;2024-03-23T14:14:02;12.50;84.30
37052;DHT22;22964;52.272;13.356;2024-03-23T14:16:32;12.70;83.70
37052;DHT22;22964;52.272;13.356;2024-03-23T14:18:59;12.90;81.70
37052;DHT22;22964;52.272;13.356;2024-03-23T14:21:25;13.00;80.40
37052;DHT22;22964;52.272;13.356;2024-03-23T14:23:51;13.20;79.90
37052;DHT22;22964;52.272;13.356;2024-03-23T14:26:16;13.30;79.80
37052;DHT22;22964;52.272;13.356;2024-03-23T14:28:42;13.40;77.60
37052;DHT22;22964;52.272;13.356;2024-03-23T14:31:08;13.50;76.10
37052;DHT22;22964;52.272;13.356;2024-03-23T14:33:39;13.60;75.90
37052;DHT22;22964;52.272;13.356;2024-03-23T14:36:11;13.70;75.70
37052;DHT22;22964;52.272;13.356;2024-03-23T14:38:37;13.70;75.40
37052;DHT22;22964;52.272;13.356;2024-03-23T14:41:03;13.80;74.50
37052;DHT22;22964;52.272;13.356;2024-03-23T14:43:30;13.80;73.70
37052;DHT22;22964;52.272;13.356;2024-03-23T14:46:12;13.80;73.00
37052;DHT22;22964;52.272;13.356;2024-03-23T14:48:44;13.80;71.30
37052;DHT22;22964;52.272;13.356;2024-03-23T14:51:12;13.80;72.70
37052;DHT22;22964;52.272;13.356;2024-03-23T14:53:39;13.70;72.10
37052;DHT22;22964;52.272;13.356;2024-03-23T14:56:08;13.70;71.40
37052;DHT22;22964;52.272;13.356;2024-03-23T14:58:40;13.70;69.40
37052;DHT22;22964;52.272;13.356;2024-03-23T15:01:07;13.60;67.90
37052;DHT22;22964;52.272;13.356;2024-03-23T15:03:37;13.50;67.30
37052;DHT22;22964;52.272;13.356;2024-03-23T15:06:08;13.20;67.50
37052;DHT22;22964;52.272;13.356;2024-03-23T15:08:37;13.10;68.50
37052;DHT22;22964;52.272;13.356;2024-03-23T15:11:03;12.90;69.20
37052;DHT22;22964;52.272;13.356;2024-03-23T15:13:37;12.70;70.60
37052;DHT22;22964;52.272;13.356;2024-03-23T15:16:04;12.60;71.00
37052;DHT22;22964;52.272;13.356;2024-03-23T15:18:31;12.60;72.30
37052;DHT22;22964;52.272;13.356;2024-03-23T15:21:01;12.50;73.30
37052;DHT22;22964;52.272;13.356;2024-03-23T15:23:28;12.50;72.90
37052;DHT22;22964;52.272;13.356;2024-03-23T15:25:58;12.50;73.30
37052;DHT22;22964;52.272;13.356;2024-03-23T15:28:25;12.50;72.40
37052;DHT22;22964;52.272;13.356;2024-03-23T15:31:08;12.50;71.90
37052;DHT22;22964;52.272;13.356;2024-03-23T15:33:35;12.40;71.20
37052;DHT22;22964;52.272;13.356;2024-03-23T15:36:02;12.40;71.50
37052;DHT22;22964;52.272;13.356;2024-03-23T15:38:28;12.30;71.40
37052;DHT22;22964;52.272;13.356;2024-03-23T15:40:56;12.20;72.00
37052;DHT22;22964;52.272;13.356;2024-03-23T15:43:22;12.20;71.10
37052;DHT22;22964;52.272;13.356;2024-03-23T15:45:58;12.10;71.20
37052;DHT22;22964;52.272;13.356;2024-03-23T15:48:28;12.00;70.90
37052;DHT22;22964;52.272;13.356;2024-03-23T15:50:54;12.00;71.60
37052;DHT22;22964;52.272;13.356;2024-03-23T15:53:21;11.90;71.70
37052;DHT22;22964;52.272;13.356;2024-03-23T15:56:13;11.80;72.00
37052;DHT22;22964;52.272;13.356;2024-03-23T15:58:39;11.80;71.90
37052;DHT22;22964;52.272;13.356;2024-03-23T16:01:06;11.80;72.80
37052;DHT22;22964;52.272;13.356;2024-03-23T16:03:34;11.80;72.70
37052;DHT22;22964;52.272;13.356;2024-03-23T16:06:05;11.70;72.70
37052;DHT22;22964;52.272;13.356;2024-03-23T16:08:32;11.70;72.80
37052;DHT22;22964;52.272;13.356;2024-03-23T16:11:02;11.70;73.00
37052;DHT22;22964;52.272;13.356;2024-03-23T16:13:28;11.60;72.00
37052;DHT22;22964;52.272;13.356;2024-03-23T16:15:55;11.60;72.70
37052;DHT22;22964;52.272;13.356;2024-03-23T16:18:22;11.60;72.30
37052;DHT22;22964;52.272;13.356;2024-03-23T16:20:58;11.60;72.10
37052;DHT22;22964;52.272;13.356;2024-03-23T16:23:25;11.50;71.80
37052;DHT22;22964;52.272;13.356;2024-03-23T16:25:52;11.50;72.00
37052;DHT22;22964;52.272;13.356;2024-03-23T16:28:34;11.50;72.00
37052;DHT22;22964;52.272;13.356;2024-03-23T16:31:05;11.50;71.50
37052;DHT22;22964;52.272;13.356;2024-03-23T16:33:35;11.40;72.00
37052;DHT22;22964;52.272;13.356;2024-03-23T16:36:11;11.40;72.10
37052;DHT22;22964;52.272;13.356;2024-03-23T16:38:41;11.40;71.90
37052;DHT22;22964;52.272;13.356;2024-03-23T16:41:09;11.30;72.40
37052;DHT22;22964;52.272;13.356;2024-03-23T16:43:36;11.30;72.50
37052;DHT22;22964;52.272;13.356;2024-03-23T16:46:13;11.30;72.70
37052;DHT22;22964;52.272;13.356;2024-03-23T16:48:41;11.20;72.60
37052;DHT22;22964;52.272;13.356;2024-03-23T16:51:11;11.30;72.80
37052;DHT22;22964;52.272;13.356;2024-03-23T16:53:37;11.30;72.70
37052;DHT22;22964;52.272;13.356;2024-03-23T16:56:09;11.20;72.70
37052;DHT22;22964;52.272;13.356;2024-03-23T16:58:36;11.20;72.80
37052;DHT22;22964;52.272;13.356;2024-03-23T17:01:09;11.20;72.90
37052;DHT22;22964;52.272;13.356;2024-03-23T17:03:38;11.20;72.70
37052;DHT22;22964;52.272;13.356;2024-03-23T17:06:04;11.20;72.80
37052;DHT22;22964;52.272;13.356;2024-03-23T17:08:31;11.20;72.90
37052;DHT22;22964;52.272;13.356;2024-03-23T17:11:00;11.10;72.90
37052;DHT22;22964;52.272;13.356;2024-03-23T17:13:33;11.10;72.80
37052;DHT22;22964;52.272;13.356;2024-03-23T17:15:59;11.10;72.70
37052;DHT22;22964;52.272;13.356;2024-03-23T17:18:26;11.10;72.60
37052;DHT22;22964;52.272;13.356;2024-03-23T17:20:52;11.10;72.60
37052;DHT22;22964;52.272;13.356;2024-03-23T17:23:29;11.00;72.50
37052;DHT22;22964;52.272;13.356;2024-03-23T17:25:56;11.00;72.30
37052;DHT22;22964;52.272;13.356;2024-03-23T17:28:22;10.90;73.60
37052;DHT22;22964;52.272;13.356;2024-03-23T17:30:48;10.90;72.70
37052;DHT22;22964;52.272;13.356;2024-03-23T17:33:14;10.90;72.40
37052;DHT22;22964;52.272;13.356;2024-03-23T17:35:41;10.80;72.40
37052;DHT22;22964;52.272;13.356;2024-03-23T17:38:07;10.80;72.40
37052;DHT22;22964;52.272;13.356;2024-03-23T17:40:33;10.80;73.10
37052;DHT22;22964;52.272;13.356;2024-03-23T17:42:59;10.80;72.30
37052;DHT22;22964;52.272;13.356;2024-03-23T17:45:25;10.70;72.30
37052;DHT22;22964;52.272;13.356;2024-03-23T17:47:50;10.70;72.40
37052;DHT22;22964;52.272;13.356;2024-03-23T17:50:17;10.70;72.40
37052;DHT22;22964;52.272;13.356;2024-03-23T17:52:44;10.70;72.40
37052;DHT22;22964;52.272;13.356;2024-03-23T17:55:10;10.60;72.30
37052;DHT22;22964;52.272;13.356;2024-03-23T17:57:35;10.60;72.40
37052;DHT22;22964;52.272;13.356;2024-03-23T18:00:01;10.60;72.40
37052;DHT22;22964;52.272;13.356;2024-03-23T18:02:37;10.50;72.40
37052;DHT22;22964;52.272;13.356;2024-03-23T18:05:03;10.50;72.40
37052;DHT22;22964;52.272;13.356;2024-03-23T18:07:32;10.50;72.40
37052;DHT22;22964;52.272;13.356;2024-03-23T18:09:58;10.40;72.30
37052;DHT22;22964;52.272;13.356;2024-03-23T18:12:23;10.40;72.30
37052;DHT22;22964;52.272;13.356;2024-03-23T18:14:50;10.40;72.40
37052;DHT22;22964;52.272;13.356;2024-03-23T18:17:16;10.30;72.20
37052;DHT22;22964;52.272;13.356;2024-03-23T18:19:42;10.30;72.20
37052;DHT22;22964;52.272;13.356;2024-03-23T18:22:07;10.20;72.20
37052;DHT22;22964;52.272;13.356;2024-03-23T18:24:33;10.20;72.40
37052;DHT22;22964;52.272;13.356;2024-03-23T18:26:59;10.20;72.40
37052;DHT22;22964;52.272;13.356;2024-03-23T18:29:26;10.10;72.40
37052;DHT22;22964;52.272;13.356;2024-03-23T18:31:52;10.10;72.50
37052;DHT22;22964;52.272;13.356;2024-03-23T18:34:17;10.10;73.30
37052;DHT22;22964;52.272;13.356;2024-03-23T18:36:44;10.10;72.60
37052;DHT22;22964;52.272;13.356;2024-03-23T18:39:10;10.00;72.60
37052;DHT22;22964;52.272;13.356;2024-03-23T18:41:38;10.10;72.70
37052;DHT22;22964;52.272;13.356;2024-03-23T18:44:04;10.00;72.70
37052;DHT22;22964;52.272;13.356;2024-03-23T18:46:29;10.00;72.90
37052;DHT22;22964;52.272;13.356;2024-03-23T18:48:55;10.00;73.10
37052;DHT22;22964;52.272;13.356;2024-03-23T18:51:21;10.00;73.10
37052;DHT22;22964;52.272;13.356;2024-03-23T18:53:47;10.00;73.40
37052;DHT22;22964;52.272;13.356;2024-03-23T18:56:13;10.00;73.30
37052;DHT22;22964;52.272;13.356;2024-03-23T18:58:39;10.00;73.50
37052;DHT22;22964;52.272;13.356;2024-03-23T19:01:05;10.00;73.70
37052;DHT22;22964;52.272;13.356;2024-03-23T19:03:32;10.00;74.60
37052;DHT22;22964;52.272;13.356;2024-03-23T19:05:59;10.00;73.80
37052;DHT22;22964;52.272;13.356;2024-03-23T19:08:25;10.00;73.80
37052;DHT22;22964;52.272;13.356;2024-03-23T19:10:54;10.00;74.00
37052;DHT22;22964;52.272;13.356;2024-03-23T19:13:21;10.00;73.80
37052;DHT22;22964;52.272;13.356;2024-03-23T19:15:47;10.00;73.90
37052;DHT22;22964;52.272;13.356;2024-03-23T19:18:13;10.00;74.00
37052;DHT22;22964;52.272;13.356;2024-03-23T19:20:40;10.10;74.20
37052;DHT22;22964;52.272;13.356;2024-03-23T19:23:06;10.10;74.30
37052;DHT22;22964;52.272;13.356;2024-03-23T19:25:33;10.10;74.20
37052;DHT22;22964;52.272;13.356;2024-03-23T19:27:59;10.10;74.20
37052;DHT22;22964;52.272;13.356;2024-03-23T19:30:30;10.10;74.20
37052;DHT22;22964;52.272;13.356;2024-03-23T19:32:58;10.10;74.20
37052;DHT22;22964;52.272;13.356;2024-03-23T19:35:27;10.10;73.90
37052;DHT22;22964;52.272;13.356;2024-03-23T19:37:53;10.20;73.90
37052;DHT22;22964;52.272;13.356;2024-03-23T19:40:19;10.10;73.70
37052;DHT22;22964;52.272;13.356;2024-03-23T19:42:45;10.10;74.40
37052;DHT22;22964;52.272;13.356;2024-03-23T19:45:11;10.10;73.40
37052;DHT22;22964;52.272;13.356;2024-03-23T19:47:38;10.10;73.40
37052;DHT22;22964;52.272;13.356;2024-03-23T19:50:04;10.10;73.50
37052;DHT22;22964;52.272;13.356;2024-03-23T19:52:30;10.10;73.50
37052;DHT22;22964;52.272;13.356;2024-03-23T19:54:56;10.10;73.50
37052;DHT22;22964;52.272;13.356;2024-03-23T19:57:22;10.00;73.30
37052;DHT22;22964;52.272;13.356;2024-03-23T19:59:47;10.10;73.20
37052;DHT22;22964;52.272;13.356;2024-03-23T20:02:13;10.00;73.00
37052;DHT22;22964;52.272;13.356;2024-03-23T20:04:39;10.00;73.00
37052;DHT22;22964;52.272;13.356;2024-03-23T20:07:05;10.00;73.00
37052;DHT22;22964;52.272;13.356;2024-03-23T20:09:30;9.90;73.00
37052;DHT22;22964;52.272;13.356;2024-03-23T20:11:56;9.90;73.10
37052;DHT22;22964;52.272;13.356;2024-03-23T20:14:24;9.90;73.30
37052;DHT22;22964;52.272;13.356;2024-03-23T20:16:50;9.80;73.30
37052;DHT22;22964;52.272;13.356;2024-03-23T20:19:19;9.80;73.60
37052;DHT22;22964;52.272;13.356;2024-03-23T20:21:45;9.80;73.40
37052;DHT22;22964;52.272;13.356;2024-03-23T20:24:10;9.70;73.40
37052;DHT22;22964;52.272;13.356;2024-03-23T20:26:36;9.70;73.40
37052;DHT22;22964;52.272;13.356;2024-03-23T20:29:02;9.70;73.40
37052;DHT22;22964;52.272;13.356;2024-03-23T20:31:27;9.60;73.40
37052;DHT22;22964;52.272;13.356;2024-03-23T20:33:53;9.60;73.50
37052;DHT22;22964;52.272;13.356;2024-03-23T20:36:20;9.50;73.40
37052;DHT22;22964;52.272;13.356;2024-03-23T20:38:45;9.60;73.50
37052;DHT22;22964;52.272;13.356;2024-03-23T20:41:11;9.50;73.40
37052;DHT22;22964;52.272;13.356;2024-03-23T20:43:37;9.50;73.50
37052;DHT22;22964;52.272;13.356;2024-03-23T20:46:11;9.40;73.40
37052;DHT22;22964;52.272;13.356;2024-03-23T20:48:37;9.40;73.50
37052;DHT22;22964;52.272;13.356;2024-03-23T20:51:07;9.30;73.50
37052;DHT22;22964;52.272;13.356;2024-03-23T20:53:36;9.40;73.50
37052;DHT22;22964;52.272;13.356;2024-03-23T20:56:03;9.30;73.40
37052;DHT22;22964;52.272;13.356;2024-03-23T20:58:30;9.30;73.30
37052;DHT22;22964;52.272;13.356;2024-03-23T21:01:03;9.20;73.20
37052;DHT22;22964;52.272;13.356;2024-03-23T21:03:29;9.20;73.20
37052;DHT22;22964;52.272;13.356;2024-03-23T21:05:55;9.10;73.40
37052;DHT22;22964;52.272;13.356;2024-03-23T21:08:22;9.10;73.60
37052;DHT22;22964;52.272;13.356;2024-03-23T21:10:49;9.00;73.70
37052;DHT22;22964;52.272;13.356;2024-03-23T21:13:14;9.00;73.80
37052;DHT22;22964;52.272;13.356;2024-03-23T21:15:51;9.00;74.00
37052;DHT22;22964;52.272;13.356;2024-03-23T21:18:17;8.90;73.90
37052;DHT22;22964;52.272;13.356;2024-03-23T21:20:44;8.90;73.90
37052;DHT22;22964;52.272;13.356;2024-03-23T21:23:10;8.90;73.80
37052;DHT22;22964;52.272;13.356;2024-03-23T21:25:36;8.80;73.70
37052;DHT22;22964;52.272;13.356;2024-03-23T21:28:05;8.70;73.50
37052;DHT22;22964;52.272;13.356;2024-03-23T21:30:31;8.70;73.50
37052;DHT22;22964;52.272;13.356;2024-03-23T21:32:56;8.70;73.60
37052;DHT22;22964;52.272;13.356;2024-03-23T21:35:22;8.60;73.60
37052;DHT22;22964;52.272;13.356;2024-03-23T21:37:51;8.60;73.70
37052;DHT22;22964;52.272;13.356;2024-03-23T21:40:17;8.60;73.80
37052;DHT22;22964;52.272;13.356;2024-03-23T21:42:43;8.60;74.00
37052;DHT22;22964;52.272;13.356;2024-03-23T21:45:09;8.50;74.10
37052;DHT22;22964;52.272;13.356;2024-03-23T21:47:35;8.50;74.30
37052;DHT22;22964;52.272;13.356;2024-03-23T21:50:01;8.50;74.50
37052;DHT22;22964;52.272;13.356;2024-03-23T21:52:27;8.40;74.50
37052;DHT22;22964;52.272;13.356;2024-03-23T21:54:52;8.40;74.70
37052;DHT22;22964;52.272;13.356;2024-03-23T21:57:18;8.40;74.80
37052;DHT22;22964;52.272;13.356;2024-03-23T21:59:44;8.40;74.80
37052;DHT22;22964;52.272;13.356;2024-03-23T22:02:12;8.30;74.80
37052;DHT22;22964;52.272;13.356;2024-03-23T22:04:38;8.30;74.90
37052;DHT22;22964;52.272;13.356;2024-03-23T22:07:04;8.30;74.80
37052;DHT22;22964;52.272;13.356;2024-03-23T22:09:30;8.30;74.80
37052;DHT22;22964;52.272;13.356;2024-03-23T22:11:56;8.30;74.90
37052;DHT22;22964;52.272;13.356;2024-03-23T22:14:23;8.20;74.90
37052;DHT22;22964;52.272;13.356;2024-03-23T22:16:48;8.30;75.00
37052;DHT22;22964;52.272;13.356;2024-03-23T22:19:14;8.20;75.00
37052;DHT22;22964;52.272;13.356;2024-03-23T22:21:41;8.20;75.00
37052;DHT22;22964;52.272;13.356;2024-03-23T22:24:07;8.20;75.00
37052;DHT22;22964;52.272;13.356;2024-03-23T22:26:33;8.10;74.90
37052;DHT22;22964;52.272;13.356;2024-03-23T22:28:59;8.20;75.00
37052;DHT22;22964;52.272;13.356;2024-03-23T22:31:25;8.10;74.90
37052;DHT22;22964;52.272;13.356;2024-03-23T22:33:51;8.10;74.90
37052;DHT22;22964;52.272;13.356;2024-03-23T22:36:16;8.10;74.90
37052;DHT22;22964;52.272;13.356;2024-03-23T22:38:42;8.00;74.80
37052;DHT22;22964;52.272;13.356;2024-03-23T22:41:08;8.00;74.60
37052;DHT22;22964;52.272;13.356;2024-03-23T22:43:37;8.00;74.50
37052;DHT22;22964;52.272;13.356;2024-03-23T22:46:05;7.90;75.10
37052;DHT22;22964;52.272;13.356;2024-03-23T22:48:32;7.90;74.20
37052;DHT22;22964;52.272;13.356;2024-03-23T22:51:00;7.80;74.20
37052;DHT22;22964;52.272;13.356;2024-03-23T22:53:27;7.80;74.30
37052;DHT22;22964;52.272;13.356;2024-03-23T22:55:54;7.70;74.30
37052;DHT22;22964;52.272;13.356;2024-03-23T22:58:20;7.70;74.50
37052;DHT22;22964;52.272;13.356;2024-03-23T23:00:47;7.70;74.60
37052;DHT22;22964;52.272;13.356;2024-03-23T23:03:17;7.70;75.10
37052;DHT22;22964;52.272;13.356;2024-03-23T23:05:45;7.60;75.40
37052;DHT22;22964;52.272;13.356;2024-03-23T23:08:12;7.60;75.70
37052;DHT22;22964;52.272;13.356;2024-03-23T23:10:38;7.60;76.20
37052;DHT22;22964;52.272;13.356;2024-03-23T23:13:09;7.60;76.20
37052;DHT22;22964;52.272;13.356;2024-03-23T23:15:36;7.60;76.30
37052;DHT22;22964;52.272;13.356;2024-03-23T23:18:02;7.50;76.30
37052;DHT22;22964;52.272;13.356;2024-03-23T23:20:29;7.60;76.40
37052;DHT22;22964;52.272;13.356;2024-03-23T23:22:54;7.60;76.60
37052;DHT22;22964;52.272;13.356;2024-03-23T23:25:20;7.50;76.70
37052;DHT22;22964;52.272;13.356;2024-03-23T23:27:46;7.60;76.80
37052;DHT22;22964;52.272;13.356;2024-03-23T23:30:12;7.60;76.90
37052;DHT22;22964;52.272;13.356;2024-03-23T23:32:37;7.60;77.00
37052;DHT22;22964;52.272;13.356;2024-03-23T23:35:03;7.60;78.00
37052;DHT22;22964;52.272;13.356;2024-03-23T23:37:30;7.60;77.20
37052;DHT22;22964;52.272;13.356;2024-03-23T23:39:56;7.70;77.60
37052;DHT22;22964;52.272;13.356;2024-03-23T23:42:22;7.70;77.20
37052;DHT22;22964;52.272;13.356;2024-03-23T23:44:49;7.70;77.20
37052;DHT22;22964;52.272;13.356;2024-03-23T23:47:14;7.80;77.30
37052;DHT22;22964;52.272;13.356;2024-03-23T23:49:40;7.70;77.10
37052;DHT22;22964;52.272;13.356;2024-03-23T23:52:06;7.70;77.10
37052;DHT22;22964;52.272;13.356;2024-03-23T23:54:32;7.80;77.00
37052;DHT22;22964;52.272;13.356;2024-03-23T23:56:57;7.80;77.00
37052;DHT22;22964;52.272;13.356;2024-03-23T23:59:23;7.80;76.80
